• Join FlightAware (Why Join?)
  • Login
  • US Flag 
08:12PM EDT


 

Airport Tracker/Info


-or-


 

Live Flight TrackerFlight Track Log ✈ OPT322 ✈ 03-Feb-2014 ✈ KSTS - KMCC

Flight Track Log - Related Links

Times and Time Zones

All times are in EST time to prevent confusion due to time zone crossing. See the OPT322 flight status page for this flight to view local times or setup timezone preferences in your user account.

Time Position Orientation Groundspeed Altitude Reporting Facility
EST Latitude Longitude Course Direction KTS MPH feet Rate Location/Type
08:10PM 38.5228 -122.8167 139° Southeast 147 169 1,500  Level Oakland Center
08:11PM 38.5222 -122.7650 91° East 222 255 5,800 4,080 Climbing Oakland Center
08:12PM 38.4833 -122.6983 127° Southeast 266 306 9,900 4,020 Climbing Oakland Center
08:13PM 38.5006 -122.5986 78° East 286 329 14,000 3,300 Climbing Oakland Center
08:14PM 38.5638 -122.3424 96° East  Level Estimated
08:14PM 38.5172 -122.4886 79° East 309 356 16,700  Level Oakland Center
08:15PM 38.5172 -122.2901 139° Southeast  Level FlightAware Approximate
08:15PM 38.5333 -122.3739 80° East 325 374 16,900  Level Oakland Center
08:16PM 38.5492 -122.2642 80° East 316 364 16,700 -840 Descending Oakland Center
08:17PM 38.5647 -122.1531 80° East 317 365 15,200 -1,680 Descending Oakland Center
08:18PM 38.5847 -122.0108 80° East 337 388 13,400 -1,680 Descending Oakland Center
08:19PM 38.6014 -121.8894 80° East 345 397 11,900 -1,380 Descending Oakland Center
08:20PM 38.6158 -121.7842 80° East 329 379 10,700 -1,440 Descending Oakland Center
08:21PM 38.6300 -121.6781 80° East 289 333 9,000 -1,620 Descending Oakland Center
08:22PM 38.6425 -121.5881 80° East 278 320 7,500 -1,800 Descending Oakland Center
08:23PM 38.6667 -121.5000 71° East 247 284 5,500 -2,340 Descending Northern Cal TRACON
08:24PM 38.7167 -121.5000 360° North 200 230 3,000 -1,680 Descending Northern Cal TRACON
08:25PM 38.7500 -121.4667 38° Northeast 147 169 2,200 -840 Descending Northern Cal TRACON
08:27PM 38.6983 -121.4000 135° Southeast 125 144 500 -660 Descending Oakland Center
08:28PM 38.6667 -121.3989 178° South 125 144 200 -300 Descending Oakland Center